Time;durP1;ratioP1;P1;durP2;ratioP2;P2;SDS_P1;SDS_P2;PMS_P1;PMS_P2;Temp;Humidity;BMP_temperature;BMP_pressure;BME280_temperature;BME280_humidity;BME280_pressure;Samples;Min_cycle;Max_cycle;Signal;HPM_P1;HPM_P2
2022/09/06 00:03:09;;;;;;;1.20;0.68;;;22.00;72.60;;;;;;10208638;29;20227;-87
2022/09/06 00:08:13;;;;;;;0.82;0.60;;;22.00;72.70;;;;;;10209659;29;20227;-87
2022/09/06 00:13:15;;;;;;;0.82;0.60;;;21.90;73.10;;;;;;10192375;29;20227;-88
2022/09/06 00:18:18;;;;;;;0.95;0.60;;;21.90;73.30;;;;;;10191640;29;20279;-87
2022/09/06 00:23:21;;;;;;;0.68;0.60;;;21.90;73.50;;;;;;10194047;29;20202;-87
2022/09/06 00:28:23;;;;;;;1.20;0.80;;;21.90;73.40;;;;;;10190810;29;20293;-87
2022/09/06 00:33:26;;;;;;;1.20;0.70;;;21.90;73.60;;;;;;10192404;29;20235;-87
2022/09/06 00:38:28;;;;;;;0.80;0.70;;;21.90;73.80;;;;;;10191354;29;20250;-87
2022/09/06 00:43:31;;;;;;;1.00;0.80;;;21.80;73.90;;;;;;10193088;29;20222;-87
2022/09/06 00:48:36;;;;;;;0.98;0.65;;;21.90;74.00;;;;;;10245442;29;20238;-87
2022/09/06 00:53:39;;;;;;;2.85;0.77;;;21.80;73.90;;;;;;10202432;29;20313;-87
2022/09/06 00:58:42;;;;;;;0.90;0.70;;;21.80;74.10;;;;;;10208396;29;20282;-87
2022/09/06 01:03:44;;;;;;;1.35;0.88;;;21.80;74.30;;;;;;10198842;29;20578;-87
2022/09/06 01:09:09;;;;;;;1.25;0.80;;;21.80;74.30;;;;;;10191828;29;20250;-87
2022/09/06 01:14:20;;;;;;;1.27;0.95;;;21.80;74.40;;;;;;10209598;29;20238;-87
2022/09/06 01:19:44;;;;;;;1.33;0.77;;;21.80;74.70;;;;;;10201155;28;20989;-88
2022/09/06 01:24:49;;;;;;;1.70;1.00;;;21.80;74.70;;;;;;10206609;29;20627;-87
2022/09/06 01:30:01;;;;;;;0.77;0.63;;;21.80;74.80;;;;;;10217495;28;20249;-87
2022/09/06 01:35:49;;;;;;;1.35;1.10;;;21.70;74.70;;;;;;10217592;29;20582;-87
2022/09/06 01:40:52;;;;;;;1.27;1.00;;;21.80;75.00;;;;;;10183132;29;20312;-87
2022/09/06 01:46:06;;;;;;;5.10;1.02;;;21.80;75.10;;;;;;10192047;29;20702;-88
2022/09/06 01:51:23;;;;;;;1.08;0.80;;;21.70;75.10;;;;;;10176404;29;20243;-87
2022/09/06 01:57:00;;;;;;;1.80;0.98;;;21.80;75.20;;;;;;10172325;29;20247;-87
2022/09/06 02:02:09;;;;;;;1.20;1.10;;;21.70;75.30;;;;;;10166928;29;20250;-88
2022/09/06 02:07:23;;;;;;;1.35;1.08;;;21.70;75.60;;;;;;10210646;29;20290;-87
2022/09/06 02:12:28;;;;;;;1.15;0.98;;;21.70;75.60;;;;;;10195186;29;20321;-87
2022/09/06 02:17:34;;;;;;;1.75;1.00;;;21.70;75.70;;;;;;10243339;29;20203;-87
2022/09/06 02:22:40;;;;;;;1.10;0.85;;;21.70;75.70;;;;;;10222985;29;20234;-85
2022/09/06 02:27:42;;;;;;;0.95;0.80;;;21.70;75.60;;;;;;10208299;28;20257;-87
2022/09/06 02:32:56;;;;;;;1.35;1.00;;;21.70;75.60;;;;;;10206291;29;20207;-87
2022/09/06 02:37:58;;;;;;;1.40;0.98;;;21.70;75.70;;;;;;10234900;28;20261;-88
2022/09/06 02:43:01;;;;;;;1.40;0.90;;;21.60;75.80;;;;;;10223698;29;20231;-87
2022/09/06 02:48:03;;;;;;;2.55;1.00;;;21.60;75.90;;;;;;10238354;28;20218;-86
2022/09/06 02:53:11;;;;;;;1.02;0.80;;;21.60;75.80;;;;;;10237120;28;20206;-86
2022/09/06 02:58:14;;;;;;;1.02;0.68;;;21.60;75.80;;;;;;10203474;28;20206;-86
2022/09/06 03:03:17;;;;;;;1.23;1.08;;;21.60;75.80;;;;;;10229063;28;20285;-86
2022/09/06 03:08:24;;;;;;;2.15;1.42;;;21.60;75.80;;;;;;10198563;29;20231;-87
2022/09/06 03:13:27;;;;;;;1.42;1.00;;;21.60;75.90;;;;;;10199760;29;20207;-87
2022/09/06 03:18:30;;;;;;;1.38;1.08;;;21.60;76.00;;;;;;10228679;28;20202;-86
2022/09/06 03:23:33;;;;;;;1.58;0.90;;;21.60;76.00;;;;;;10255407;28;20285;-87
2022/09/06 03:28:36;;;;;;;4.20;1.40;;;;;;;;;;10226414;28;20202;-87
2022/09/06 03:33:38;;;;;;;2.08;1.10;;;21.70;92.70;;;;;;10231002;29;20594;-86
2022/09/06 03:38:41;;;;;;;2.10;1.08;;;21.60;76.20;;;;;;10199015;29;20278;-86
2022/09/06 03:43:43;;;;;;;2.25;1.35;;;21.60;76.20;;;;;;10254141;29;20298;-86
2022/09/06 03:48:46;;;;;;;1.60;1.08;;;21.50;76.10;;;;;;10273213;28;20182;-87
2022/09/06 03:53:48;;;;;;;2.90;1.08;;;21.50;76.20;;;;;;10256501;28;21062;-87
2022/09/06 03:58:51;;;;;;;1.83;1.00;;;21.50;76.10;;;;;;10271132;28;20658;-87
2022/09/06 04:03:53;;;;;;;1.75;1.40;;;21.60;76.10;;;;;;10271782;28;20206;-86
2022/09/06 04:08:56;;;;;;;1.55;1.05;;;21.50;76.00;;;;;;10269332;28;20206;-86
2022/09/06 04:13:58;;;;;;;2.50;1.27;;;21.50;76.10;;;;;;10275541;28;20234;-87
2022/09/06 04:19:02;;;;;;;1.20;1.00;;;21.50;76.30;;;;;;10281913;28;20246;-86
2022/09/06 04:24:05;;;;;;;0.98;0.80;;;21.50;76.80;;;;;;10301511;28;20182;-87
2022/09/06 04:29:08;;;;;;;1.77;1.33;;;21.50;76.30;;;;;;10266687;28;20187;-87
2022/09/06 04:34:10;;;;;;;1.45;1.30;;;21.50;76.20;;;;;;10253253;28;20218;-87
2022/09/06 04:39:13;;;;;;;1.63;1.20;;;21.50;76.10;;;;;;10274042;28;20206;-87
2022/09/06 04:44:16;;;;;;;1.75;1.10;;;21.50;76.00;;;;;;10283039;28;20191;-87
2022/09/06 04:49:18;;;;;;;2.95;1.50;;;21.50;76.00;;;;;;10274900;28;20174;-88
2022/09/06 04:54:20;;;;;;;3.83;1.73;;;21.50;75.90;;;;;;10282253;28;20230;-87
2022/09/06 04:59:23;;;;;;;1.98;1.30;;;21.50;76.10;;;;;;10284810;28;20195;-87
2022/09/06 05:04:25;;;;;;;8.70;2.80;;;21.50;76.00;;;;;;10283753;28;20209;-88
2022/09/06 05:09:28;;;;;;;18.40;3.13;;;20.60;73.50;;;;;;10276406;28;20191;-87
2022/09/06 05:14:30;;;;;;;9.00;2.38;;;20.40;71.10;;;;;;10289537;28;20186;-87
2022/09/06 05:19:33;;;;;;;7.93;2.50;;;20.80;70.30;;;;;;10267017;28;20250;-87
2022/09/06 05:24:35;;;;;;;5.78;3.25;;;21.00;69.40;;;;;;10276074;28;20202;-87
2022/09/06 05:29:38;;;;;;;5.68;2.38;;;;;;;;;;10257844;28;20187;-87
2022/09/06 05:34:41;;;;;;;4.47;2.17;;;20.60;73.10;;;;;;10304020;28;20245;-88
2022/09/06 05:39:43;;;;;;;3.08;1.85;;;21.10;71.50;;;;;;10309301;28;20194;-87
2022/09/06 05:44:45;;;;;;;4.95;1.85;;;21.30;70.80;;;;;;10298268;28;20179;-88
2022/09/06 05:49:48;;;;;;;5.95;2.80;;;21.30;70.50;;;;;;10254987;28;20207;-93
2022/09/06 05:54:51;;;;;;;6.00;2.72;;;20.40;71.30;;;;;;10252501;28;20214;-91
2022/09/06 05:59:53;;;;;;;3.53;2.30;;;20.60;71.30;;;;;;10252380;28;20191;-92
2022/09/06 06:04:57;;;;;;;5.57;2.28;;;20.80;70.40;;;;;;10268903;28;20242;-92
2022/09/06 06:09:59;;;;;;;4.15;1.80;;;20.90;69.80;;;;;;10308134;28;20178;-92
2022/09/06 06:15:04;;;;;;;4.55;2.22;;;21.00;70.40;;;;;;10264509;28;20265;-91
2022/09/06 06:20:07;;;;;;;7.05;2.22;;;21.00;70.00;;;;;;10263228;28;20579;-92
2022/09/06 06:25:10;;;;;;;4.45;2.20;;;21.20;69.70;;;;;;10245214;28;20198;-91
2022/09/06 06:30:15;;;;;;;5.93;2.90;;;;;;;;;;10243118;29;20210;-88
2022/09/06 06:35:19;;;;;;;12.68;2.65;;;15.50;96.20;;;;;;10252246;28;20253;-87
2022/09/06 06:40:22;;;;;;;7.32;2.72;;;17.90;99.90;;;;;;10268925;28;20849;-87
2022/09/06 06:45:25;;;;;;;9.13;2.72;;;18.80;94.20;;;;;;10260193;28;20668;-87
2022/09/06 06:50:28;;;;;;;11.43;3.22;;;18.10;99.90;;;;;;10203916;29;20211;-87
2022/09/06 06:55:30;;;;;;;6.38;2.45;;;16.50;99.90;;;;;;10220501;29;20211;-88
2022/09/06 07:00:33;;;;;;;6.03;3.07;;;16.20;99.90;;;;;;10210276;28;20700;-87
2022/09/06 07:05:36;;;;;;;5.15;1.48;;;15.10;99.90;;;;;;10211505;29;20618;-87
2022/09/06 07:10:59;;;;;;;4.35;1.83;;;19.80;99.90;;;;;;10218678;29;20716;-87
2022/09/06 07:16:22;;;;;;;4.15;1.80;;;21.90;99.90;;;;;;10215281;28;20223;-88
2022/09/06 07:21:26;;;;;;;1.80;1.40;;;22.60;99.90;;;;;;10219349;29;20294;-88
2022/09/06 07:26:36;;;;;;;3.33;1.30;;;22.90;99.90;;;;;;10212985;29;20270;-87
2022/09/06 07:31:40;;;;;;;2.45;1.30;;;23.10;99.90;;;;;;10232816;29;20194;-88
2022/09/06 07:37:02;;;;;;;6.95;1.70;;;23.30;99.90;;;;;;10227343;29;20206;-88
2022/09/06 07:42:05;;;;;;;3.40;1.30;;;23.50;99.90;;;;;;10234149;29;20351;-87
2022/09/06 07:47:09;;;;;;;5.13;2.03;;;23.70;99.90;;;;;;10221073;29;20198;-87
2022/09/06 07:52:31;;;;;;;4.65;1.50;;;23.70;99.90;;;;;;10237493;29;20214;-88
2022/09/06 07:57:54;;;;;;;3.28;1.60;;;23.80;99.90;;;;;;10206067;29;20247;-88
2022/09/06 08:02:56;;;;;;;2.03;1.00;;;23.90;99.80;;;;;;10213216;29;20227;-88
2022/09/06 08:07:59;;;;;;;1.30;0.80;;;24.00;99.90;;;;;;10196929;29;20759;-88
2022/09/06 08:13:21;;;;;;;2.28;1.15;;;24.00;99.90;;;;;;10196387;29;20708;-88
2022/09/06 08:18:24;;;;;;;2.03;1.10;;;23.90;99.90;;;;;;10214104;28;20199;-88
2022/09/06 08:23:26;;;;;;;1.88;1.40;;;23.90;99.90;;;;;;10213266;29;20223;-88
2022/09/06 08:28:29;;;;;;;2.42;1.00;;;24.00;99.90;;;;;;10246082;28;20206;-87
2022/09/06 08:33:31;;;;;;;1.23;1.00;;;24.10;99.80;;;;;;10252324;28;20261;-88
2022/09/06 08:38:34;;;;;;;2.38;1.17;;;24.00;99.90;;;;;;10197407;29;20234;-88
2022/09/06 08:43:37;;;;;;;2.75;1.30;;;24.00;98.30;;;;;;10222853;29;20261;-88
2022/09/06 08:48:40;;;;;;;3.95;1.73;;;24.00;99.90;;;;;;10247133;28;20226;-89
2022/09/06 08:53:50;;;;;;;1.83;1.15;;;23.40;98.00;;;;;;10230191;29;20270;-89
2022/09/06 08:59:10;;;;;;;4.97;1.25;;;23.90;99.30;;;;;;10229802;29;20237;-89
2022/09/06 09:04:18;;;;;;;1.92;1.30;;;24.00;94.00;;;;;;10228738;29;20254;-89
2022/09/06 09:09:20;;;;;;;6.25;1.20;;;24.00;99.90;;;;;;10246520;28;20233;-89
2022/09/06 09:14:27;;;;;;;2.33;1.00;;;23.90;99.80;;;;;;10246263;28;20237;-88
2022/09/06 09:19:35;;;;;;;1.52;0.93;;;23.50;93.30;;;;;;10229191;28;20738;-88
2022/09/06 09:24:38;;;;;;;1.35;1.00;;;23.70;99.90;;;;;;10228786;29;20292;-88
2022/09/06 09:29:52;;;;;;;1.92;0.95;;;24.00;99.90;;;;;;10246063;28;20233;-89
2022/09/06 09:35:17;;;;;;;8.35;1.30;;;23.90;99.70;;;;;;10207338;29;20246;-89
2022/09/06 09:40:23;;;;;;;3.35;1.02;;;23.30;76.80;;;;;;10214169;28;20274;-88
2022/09/06 09:45:29;;;;;;;1.60;0.90;;;23.50;73.20;;;;;;10219990;28;20662;-88
2022/09/06 09:50:34;;;;;;;1.10;0.70;;;23.50;69.90;;;;;;10221158;29;20227;-88
2022/09/06 09:55:37;;;;;;;1.15;0.98;;;23.70;70.60;;;;;;10208211;29;20235;-88
2022/09/06 10:00:41;;;;;;;4.60;1.02;;;23.90;71.60;;;;;;10227311;28;20282;-88
2022/09/06 10:05:59;;;;;;;3.10;1.10;;;23.90;72.60;;;;;;10214207;29;20278;-87
2022/09/06 10:11:04;;;;;;;1.95;0.88;;;23.90;74.60;;;;;;10238347;29;20242;-88
2022/09/06 10:16:07;;;;;;;1.02;0.80;;;23.90;75.10;;;;;;10241158;28;20266;-88
2022/09/06 10:21:14;;;;;;;1.52;1.00;;;23.90;75.60;;;;;;10189630;29;20259;-88
2022/09/06 10:26:48;;;;;;;1.40;0.75;;;24.00;78.20;;;;;;10206244;29;20243;-88
2022/09/06 10:32:00;;;;;;;1.00;0.90;;;24.00;79.80;;;;;;10203548;29;20238;-87
2022/09/06 10:37:47;;;;;;;1.30;0.93;;;24.10;80.30;;;;;;10195451;29;20700;-88
2022/09/06 10:42:58;;;;;;;0.98;0.65;;;24.00;70.90;;;;;;10199640;29;20270;-88
2022/09/06 10:48:03;;;;;;;1.10;0.80;;;24.10;82.00;;;;;;10181092;29;20230;-88
2022/09/06 10:53:21;;;;;;;2.17;0.98;;;23.90;83.00;;;;;;10173148;29;20239;-88
2022/09/06 10:58:33;;;;;;;4.85;0.77;;;23.90;84.50;;;;;;10187952;29;20234;-88
2022/09/06 11:03:59;;;;;;;0.70;0.60;;;23.80;66.70;;;;;;10165090;29;20258;-88
2022/09/06 11:09:16;;;;;;;2.45;1.20;;;23.80;86.50;;;;;;10177765;29;20334;-88
2022/09/06 11:14:21;;;;;;;1.27;0.63;;;23.70;76.80;;;;;;10240259;29;20245;-88
2022/09/06 11:19:28;;;;;;;2.30;0.80;;;23.80;75.70;;;;;;10250120;29;20262;-88
2022/09/06 11:25:01;;;;;;;4.32;1.00;;;23.70;75.40;;;;;;10232627;28;20313;-88
2022/09/06 11:30:05;;;;;;;1.17;0.70;;;23.70;77.10;;;;;;10229457;28;20758;-88
2022/09/06 11:35:24;;;;;;;4.03;0.95;;;23.80;89.20;;;;;;10249576;29;20229;-88
2022/09/06 11:40:35;;;;;;;0.77;0.60;;;23.60;88.80;;;;;;10231867;28;20230;-88
2022/09/06 11:45:48;;;;;;;3.90;1.10;;;23.70;90.00;;;;;;10204152;29;20254;-88
2022/09/06 11:50:53;;;;;;;6.88;1.73;;;23.60;83.70;;;;;;10197736;29;20242;-88
2022/09/06 11:55:59;;;;;;;1.60;0.68;;;23.50;83.40;;;;;;10195808;29;20234;-88
2022/09/06 12:01:17;;;;;;;2.85;0.90;;;23.70;90.80;;;;;;10199775;29;20632;-88
2022/09/06 12:06:20;;;;;;;1.35;0.80;;;23.70;90.40;;;;;;10247607;29;20288;-88
2022/09/06 12:11:40;;;;;;;1.42;0.77;;;23.70;90.20;;;;;;10241900;28;20237;-88
2022/09/06 12:16:59;;;;;;;0.80;0.65;;;23.70;90.80;;;;;;10236005;28;20230;-88
2022/09/06 12:22:01;;;;;;;3.53;0.85;;;23.70;91.10;;;;;;10195530;29;20343;-91
2022/09/06 12:27:25;;;;;;;0.85;0.68;;;23.30;86.30;;;;;;10192510;29;20629;-93
2022/09/06 12:32:37;;;;;;;3.22;0.90;;;23.20;81.00;;;;;;10176347;29;20270;-92
2022/09/06 12:38:00;;;;;;;1.45;0.93;;;23.00;73.50;;;;;;10192887;29;20289;-92
2022/09/06 12:43:04;;;;;;;6.95;1.75;;;23.10;74.10;;;;;;10217004;29;20544;-87
2022/09/06 12:48:10;;;;;;;15.25;1.90;;;23.00;68.40;;;;;;10210036;29;20210;-87
2022/09/06 12:53:23;;;;;;;5.57;1.50;;;23.80;65.50;;;;;;10200692;29;20285;-87
2022/09/06 12:58:28;;;;;;;7.82;1.55;;;24.10;65.10;;;;;;10208438;29;20309;-87
2022/09/06 13:03:57;;;;;;;6.68;1.30;;;24.40;64.70;;;;;;10208233;29;20325;-87
2022/09/06 13:09:01;;;;;;;6.75;1.02;;;24.70;64.60;;;;;;9892842;28;10000196;-88
2022/09/06 13:14:22;;;;;;;4.68;1.00;;;25.00;64.10;;;;;;10227049;28;20706;-87
2022/09/06 13:19:41;;;;;;;5.38;0.90;;;25.00;64.70;;;;;;10187160;29;20329;-87
2022/09/06 13:24:46;;;;;;;4.00;1.50;;;25.00;65.50;;;;;;10187708;29;20722;-87
2022/09/06 13:30:01;;;;;;;10.55;1.40;;;25.00;66.00;;;;;;10209901;29;20265;-87
2022/09/06 13:35:04;;;;;;;6.18;1.13;;;25.00;66.60;;;;;;10220241;28;20230;-88
2022/09/06 13:40:55;;;;;;;4.50;0.95;;;25.10;66.90;;;;;;10234752;28;20316;-88
2022/09/06 13:46:18;;;;;;;2.70;0.95;;;24.10;70.20;;;;;;10211323;28;20238;-92
2022/09/06 13:51:22;;;;;;;2.97;1.02;;;23.10;79.10;;;;;;10197947;29;20588;-93
2022/09/06 13:56:24;;;;;;;5.25;0.80;;;23.70;62.40;;;;;;10197550;29;20246;-92
2022/09/06 14:01:26;;;;;;;2.08;1.00;;;23.70;68.60;;;;;;10214738;29;20683;-92
2022/09/06 14:06:29;;;;;;;3.30;1.10;;;23.80;68.30;;;;;;10197336;29;20326;-92
2022/09/06 14:11:38;;;;;;;7.03;1.48;;;23.80;67.50;;;;;;10196668;29;20219;-93
2022/09/06 14:16:40;;;;;;;4.55;0.90;;;23.70;59.90;;;;;;10197040;29;20235;-91
2022/09/06 14:21:43;;;;;;;7.35;1.05;;;23.70;67.80;;;;;;10200789;29;20318;-92
2022/09/06 14:26:45;;;;;;;5.40;1.48;;;23.60;69.00;;;;;;10212326;29;20672;-91
2022/09/06 14:31:48;;;;;;;1.65;0.98;;;23.60;69.50;;;;;;10212587;29;20270;-92
2022/09/06 14:36:51;;;;;;;5.13;1.60;;;23.50;69.80;;;;;;10212171;29;20258;-93
2022/09/06 14:41:53;;;;;;;1.67;1.13;;;23.40;61.30;;;;;;10212106;29;20254;-94
2022/09/06 14:46:57;;;;;;;5.47;0.85;;;23.40;71.10;;;;;;10212517;29;20250;-94
2022/09/06 14:51:59;;;;;;;2.55;1.10;;;23.30;71.60;;;;;;10211686;29;20206;-94
2022/09/06 14:57:02;;;;;;;2.35;1.10;;;23.30;71.80;;;;;;10239377;28;20687;-91
2022/09/06 15:02:04;;;;;;;2.50;1.10;;;23.10;72.10;;;;;;10250419;28;20335;-93
2022/09/06 15:07:09;;;;;;;1.95;1.10;;;23.10;72.20;;;;;;10250060;29;20202;-92
2022/09/06 15:12:11;;;;;;;1.60;1.27;;;23.00;73.50;;;;;;10249853;28;20266;-93
2022/09/06 15:17:17;;;;;;;2.17;0.93;;;23.00;74.00;;;;;;10250615;28;20242;-92
2022/09/06 15:22:19;;;;;;;2.13;0.90;;;23.00;74.50;;;;;;10251157;28;20333;-94
2022/09/06 15:27:22;;;;;;;1.70;0.88;;;22.90;74.90;;;;;;10234217;28;20237;-92
2022/09/06 15:32:24;;;;;;;2.33;0.70;;;22.90;75.10;;;;;;10234161;29;20293;-92
2022/09/06 15:37:27;;;;;;;2.53;0.80;;;22.90;75.70;;;;;;10233662;28;20281;-93
2022/09/06 15:42:29;;;;;;;3.15;1.20;;;22.90;76.20;;;;;;10250437;29;20328;-92
2022/09/06 15:47:34;;;;;;;47.80;4.70;;;22.80;76.40;;;;;;10228365;28;20234;-88
2022/09/06 15:52:36;;;;;;;7.38;1.38;;;22.70;71.70;;;;;;10222957;28;20621;-88
2022/09/06 15:57:39;;;;;;;6.50;1.40;;;21.60;67.60;;;;;;10193309;29;20211;-88
2022/09/06 16:02:41;;;;;;;18.92;3.08;;;20.20;78.10;;;;;;10210285;28;20250;-87
2022/09/06 16:07:44;;;;;;;3.58;0.82;;;19.60;74.60;;;;;;10233118;28;20653;-88
2022/09/06 16:12:46;;;;;;;5.05;1.95;;;21.70;88.80;;;;;;10203221;29;20281;-88
2022/09/06 16:17:52;;;;;;;4.05;1.40;;;23.00;82.70;;;;;;10232760;29;20269;-88
2022/09/06 16:22:55;;;;;;;2.97;0.93;;;23.30;82.20;;;;;;10219675;29;20270;-89
2022/09/06 16:27:57;;;;;;;3.05;1.10;;;23.90;79.80;;;;;;10205489;28;20685;-89
2022/09/06 16:33:00;;;;;;;3.53;1.27;;;24.20;77.30;;;;;;10224745;29;20251;-88
2022/09/06 16:38:02;;;;;;;5.22;1.00;;;24.40;75.80;;;;;;10203439;29;20290;-89
2022/09/06 16:43:11;;;;;;;21.60;2.17;;;24.60;74.90;;;;;;10219585;28;20253;-90
2022/09/06 16:48:13;;;;;;;7.25;1.92;;;24.60;70.00;;;;;;10227133;28;20262;-90
2022/09/06 16:53:16;;;;;;;9.27;2.45;;;23.70;65.60;;;;;;10196824;28;20238;-90
2022/09/06 16:58:23;;;;;;;7.25;2.92;;;23.10;65.70;;;;;;10202447;29;20218;-89
2022/09/06 17:03:26;;;;;;;12.88;4.35;;;22.40;67.10;;;;;;10230335;28;20246;-90
2022/09/06 17:08:31;;;;;;;8.05;2.58;;;22.40;68.70;;;;;;10236791;28;20233;-89
2022/09/06 17:13:34;;;;;;;10.48;2.60;;;22.20;78.10;;;;;;10203850;28;20599;-90
2022/09/06 17:18:37;;;;;;;12.95;2.83;;;21.80;78.60;;;;;;10215711;29;20917;-89
2022/09/06 17:23:39;;;;;;;49.92;5.65;;;21.60;76.80;;;;;;10223790;28;20257;-90
2022/09/06 17:28:42;;;;;;;17.88;2.65;;;21.40;75.70;;;;;;10206796;29;20289;-89
2022/09/06 17:33:49;;;;;;;15.02;3.17;;;21.30;73.90;;;;;;10189264;29;20246;-89
2022/09/06 17:38:57;;;;;;;11.10;2.15;;;20.80;79.30;;;;;;10206053;29;20211;-89
2022/09/06 17:44:00;;;;;;;13.77;2.45;;;20.90;79.60;;;;;;10201071;28;20246;-89
2022/09/06 17:49:04;;;;;;;9.00;2.45;;;20.70;82.50;;;;;;10244652;28;20680;-89
2022/09/06 17:54:08;;;;;;;19.25;2.20;;;20.60;82.10;;;;;;10229859;29;20847;-88
2022/09/06 17:59:13;;;;;;;23.30;2.47;;;18.40;82.80;;;;;;10201834;29;20239;-89
2022/09/06 18:04:16;;;;;;;21.55;2.55;;;18.60;86.70;;;;;;10190895;29;20811;-89
2022/09/06 18:09:20;;;;;;;18.08;3.13;;;17.90;90.50;;;;;;10191751;29;20203;-88
2022/09/06 18:14:22;;;;;;;77.68;8.88;;;18.90;88.00;;;;;;10248336;28;20235;-88
2022/09/06 18:19:26;;;;;;;12.00;2.35;;;19.20;85.70;;;;;;10245846;28;20281;-88
2022/09/06 18:24:29;;;;;;;15.73;3.50;;;19.10;90.00;;;;;;10209074;28;20314;-88
2022/09/06 18:29:32;;;;;;;9.63;4.25;;;19.20;87.40;;;;;;10211267;28;20639;-88
2022/09/06 18:34:35;;;;;;;9.18;3.85;;;19.20;88.80;;;;;;10217036;28;20231;-88
2022/09/06 18:39:38;;;;;;;10.52;3.63;;;19.20;84.80;;;;;;10213527;29;20325;-88
2022/09/06 18:44:42;;;;;;;8.82;3.00;;;19.20;85.40;;;;;;10200925;29;22398;-88
2022/09/06 18:49:46;;;;;;;10.75;2.78;;;19.20;85.20;;;;;;10220850;29;20251;-89
2022/09/06 18:54:48;;;;;;;4.60;2.35;;;19.30;85.10;;;;;;10219527;28;20278;-88
2022/09/06 18:59:51;;;;;;;3.28;2.50;;;19.30;85.60;;;;;;10232084;28;20231;-88
2022/09/06 19:04:54;;;;;;;15.70;2.22;;;19.10;87.20;;;;;;10203328;29;20298;-88
2022/09/06 19:09:57;;;;;;;5.15;1.80;;;18.90;87.90;;;;;;10205420;29;20333;-89
2022/09/06 19:15:00;;;;;;;3.13;1.40;;;18.90;89.30;;;;;;10228665;29;20698;-88
2022/09/06 19:20:03;;;;;;;6.90;2.03;;;18.90;89.70;;;;;;10240055;28;20297;-90
2022/09/06 19:25:06;;;;;;;5.82;1.50;;;18.70;88.80;;;;;;10213248;29;20682;-90
2022/09/06 19:30:09;;;;;;;6.22;1.40;;;18.90;87.80;;;;;;10219194;29;20633;-89
2022/09/06 19:35:12;;;;;;;9.90;2.17;;;18.70;90.50;;;;;;10194888;29;20628;-89
2022/09/06 19:40:15;;;;;;;9.23;1.98;;;18.70;89.00;;;;;;10213300;29;20602;-89
2022/09/06 19:45:18;;;;;;;4.05;2.05;;;18.70;88.70;;;;;;10217301;29;20636;-89
2022/09/06 19:50:21;;;;;;;3.97;1.50;;;18.60;88.20;;;;;;10227647;29;20234;-89
2022/09/06 19:55:23;;;;;;;4.97;1.80;;;18.60;90.10;;;;;;10222593;28;20317;-89
2022/09/06 20:00:27;;;;;;;5.22;1.80;;;18.50;88.30;;;;;;10228717;28;20221;-88
2022/09/06 20:05:36;;;;;;;3.95;1.80;;;18.50;89.40;;;;;;10205685;28;20723;-88
2022/09/06 20:10:53;;;;;;;5.72;1.80;;;18.30;90.20;;;;;;10238251;29;20278;-88
2022/09/06 20:15:56;;;;;;;4.77;2.03;;;;;;;;;;10195692;29;20231;-88
2022/09/06 20:20:59;;;;;;;4.25;1.85;;;17.60;90.90;;;;;;10212657;28;20258;-88
2022/09/06 20:26:04;;;;;;;5.45;2.17;;;17.80;91.40;;;;;;10244937;28;20253;-88
2022/09/06 20:31:15;;;;;;;4.35;1.60;;;17.90;90.30;;;;;;10219981;29;20664;-88
2022/09/06 20:36:18;;;;;;;3.43;1.80;;;17.70;91.30;;;;;;10208675;29;20269;-88
2022/09/06 20:41:23;;;;;;;6.03;1.88;;;17.70;91.50;;;;;;10204811;28;20685;-88
2022/09/06 20:46:29;;;;;;;8.63;2.55;;;17.60;91.50;;;;;;10191101;29;20310;-88
2022/09/06 20:51:34;;;;;;;10.48;2.25;;;17.40;92.60;;;;;;10208924;29;20234;-88
2022/09/06 20:56:39;;;;;;;5.05;2.30;;;17.60;92.10;;;;;;10198553;29;20239;-88
2022/09/06 21:01:43;;;;;;;6.60;2.17;;;17.60;91.90;;;;;;10191478;29;20293;-89
2022/09/06 21:06:48;;;;;;;4.40;1.92;;;17.30;92.70;;;;;;10207836;29;20258;-88
2022/09/06 21:11:53;;;;;;;4.17;2.37;;;17.50;93.80;;;;;;10221102;29;20246;-88
2022/09/06 21:16:56;;;;;;;4.40;2.13;;;17.50;94.00;;;;;;10235005;28;20238;-88
2022/09/06 21:21:59;;;;;;;5.43;2.17;;;17.60;94.70;;;;;;10227920;29;20261;-88
2022/09/06 21:27:01;;;;;;;7.45;2.17;;;17.50;95.60;;;;;;10230008;28;20277;-88
2022/09/06 21:32:04;;;;;;;4.27;2.40;;;17.10;96.70;;;;;;10217439;29;20222;-88
2022/09/06 21:37:06;;;;;;;3.30;1.97;;;16.90;97.60;;;;;;10225045;29;20281;-88
2022/09/06 21:42:09;;;;;;;4.93;2.65;;;16.20;99.00;;;;;;10199650;29;20285;-88
2022/09/06 21:47:12;;;;;;;10.43;2.60;;;16.10;99.30;;;;;;10222404;29;20286;-87
2022/09/06 21:52:14;;;;;;;5.20;2.13;;;16.80;97.40;;;;;;10198077;28;20242;-88
2022/09/06 21:57:17;;;;;;;5.83;2.40;;;17.00;96.90;;;;;;10244280;28;20282;-88
2022/09/06 22:02:20;;;;;;;6.47;2.80;;;17.00;96.50;;;;;;10240346;29;20234;-88
2022/09/06 22:07:23;;;;;;;5.85;2.47;;;17.00;96.60;;;;;;10197013;29;20309;-88
2022/09/06 22:12:25;;;;;;;5.60;2.77;;;16.70;97.20;;;;;;10214446;29;20234;-88
2022/09/06 22:17:28;;;;;;;4.70;2.50;;;16.60;97.60;;;;;;10207475;29;20290;-88
2022/09/06 22:22:30;;;;;;;5.13;2.73;;;16.60;98.00;;;;;;10214493;28;20239;-88
2022/09/06 22:27:36;;;;;;;3.53;2.20;;;16.40;99.20;;;;;;10181357;29;20262;-88
2022/09/06 22:32:39;;;;;;;4.03;2.80;;;16.30;99.90;;;;;;10184904;29;20235;-88
2022/09/06 22:37:41;;;;;;;5.67;2.53;;;16.30;99.30;;;;;;10213859;29;20626;-87
2022/09/06 22:42:44;;;;;;;3.27;2.53;;;15.90;99.90;;;;;;10196061;29;20317;-88
2022/09/06 22:47:48;;;;;;;10.23;3.03;;;16.00;99.80;;;;;;10196505;29;20278;-88
2022/09/06 22:52:50;;;;;;;6.23;3.30;;;16.20;99.80;;;;;;10212823;29;20286;-88
2022/09/06 22:57:53;;;;;;;3.83;2.13;;;15.30;99.90;;;;;;10207965;29;20636;-88
2022/09/06 23:02:55;;;;;;;5.00;2.47;;;15.00;99.90;;;;;;10235570;28;20234;-88
2022/09/06 23:08:00;;;;;;;6.33;3.00;;;14.80;99.90;;;;;;10234604;28;20723;-88
2022/09/06 23:13:02;;;;;;;4.27;2.70;;;15.70;99.90;;;;;;10236495;29;20270;-88
2022/09/06 23:18:05;;;;;;;5.30;3.00;;;15.40;99.90;;;;;;10212383;29;20293;-88
2022/09/06 23:23:08;;;;;;;3.87;2.57;;;15.50;99.90;;;;;;10195549;29;20238;-88
2022/09/06 23:28:10;;;;;;;3.77;2.47;;;15.60;99.90;;;;;;10235386;28;20302;-88
2022/09/06 23:33:13;;;;;;;3.73;2.23;;;15.70;99.90;;;;;;10232994;28;20265;-88
2022/09/06 23:38:15;;;;;;;3.27;2.30;;;15.70;99.90;;;;;;10233121;28;20238;-88
2022/09/06 23:43:17;;;;;;;3.93;2.67;;;15.00;99.90;;;;;;10224929;28;20668;-89
2022/09/06 23:48:21;;;;;;;6.07;2.53;;;15.00;99.90;;;;;;10210769;29;20305;-88
2022/09/06 23:53:24;;;;;;;8.70;3.20;;;15.50;99.90;;;;;;10193088;29;20260;-88
2022/09/06 23:58:27;;;;;;;13.23;3.60;;;15.60;99.90;;;;;;10194722;29;20278;-88
